Time;durP1;ratioP1;P1;durP2;ratioP2;P2;SDS_P1;SDS_P2;PMS_P1;PMS_P2;Temp;Humidity;BMP_temperature;BMP_pressure;BME280_temperature;BME280_humidity;BME280_pressure;Samples;Min_cycle;Max_cycle;Signal;HPM_P1;HPM_P2
2021/03/16 00:01:43;;;;;;;10.40;9.60;;;6.50;99.90;;;;;;5083725;28;20483;-72
2021/03/16 00:04:10;;;;;;;11.50;10.43;;;6.50;99.90;;;;;;5085435;28;20719;-72
2021/03/16 00:06:36;;;;;;;11.20;10.57;;;6.50;99.90;;;;;;5082766;28;20949;-72
2021/03/16 00:09:02;;;;;;;11.77;10.53;;;6.50;99.90;;;;;;5083438;28;20437;-72
2021/03/16 00:11:29;;;;;;;11.27;10.30;;;6.40;99.90;;;;;;5084152;28;20956;-72
2021/03/16 00:13:55;;;;;;;12.00;10.97;;;6.40;99.90;;;;;;5082847;28;20949;-73
2021/03/16 00:16:23;;;;;;;11.70;10.90;;;6.50;99.90;;;;;;5083653;28;20452;-72
2021/03/16 00:18:49;;;;;;;11.90;11.10;;;6.50;99.90;;;;;;5084115;28;20597;-71
2021/03/16 00:21:15;;;;;;;12.80;11.67;;;6.50;99.90;;;;;;5073125;28;21000;-73
2021/03/16 00:23:41;;;;;;;12.63;11.60;;;6.50;99.90;;;;;;5073051;28;20447;-72
2021/03/16 00:26:08;;;;;;;10.73;10.13;;;6.50;99.90;;;;;;5073314;28;20504;-71
2021/03/16 00:28:35;;;;;;;10.33;9.50;;;6.40;99.90;;;;;;5072980;28;20438;-72
2021/03/16 00:31:01;;;;;;;10.63;9.90;;;6.50;99.90;;;;;;5073040;28;20442;-72
2021/03/16 00:33:27;;;;;;;10.50;9.90;;;6.50;99.90;;;;;;5073246;28;20458;-72
2021/03/16 00:35:54;;;;;;;10.40;9.90;;;6.40;99.90;;;;;;5072621;28;20464;-72
2021/03/16 00:38:20;;;;;;;11.07;10.27;;;6.40;99.90;;;;;;5072910;28;20455;-72
2021/03/16 00:40:46;;;;;;;11.57;10.60;;;6.40;99.90;;;;;;5072747;28;20545;-74
2021/03/16 00:43:13;;;;;;;11.43;10.57;;;6.50;99.90;;;;;;5072846;28;20447;-72
2021/03/16 00:45:40;;;;;;;10.30;9.60;;;6.50;99.90;;;;;;5072541;28;20464;-72
2021/03/16 00:48:07;;;;;;;10.43;9.83;;;6.40;99.90;;;;;;5072659;28;21151;-72
2021/03/16 00:50:33;;;;;;;10.47;9.70;;;6.50;99.90;;;;;;5072981;28;20495;-72
2021/03/16 00:53:00;;;;;;;10.30;9.70;;;6.50;99.90;;;;;;5072806;28;20474;-73
2021/03/16 00:55:26;;;;;;;10.33;9.63;;;6.50;99.90;;;;;;5072799;28;20438;-71
2021/03/16 00:57:52;;;;;;;10.13;9.53;;;6.50;99.90;;;;;;5076622;28;20947;-72
2021/03/16 01:00:19;;;;;;;10.27;9.73;;;6.50;99.90;;;;;;5081900;28;20489;-72
2021/03/16 01:02:46;;;;;;;11.20;10.57;;;6.50;99.90;;;;;;5082138;28;20445;-72
2021/03/16 01:05:12;;;;;;;10.33;9.60;;;6.50;99.90;;;;;;5083586;28;20815;-73
2021/03/16 01:07:39;;;;;;;10.40;9.77;;;6.50;99.90;;;;;;5081311;28;20434;-73
2021/03/16 01:10:09;;;;;;;12.07;9.50;;;6.40;99.90;;;;;;5082143;28;20450;-72
2021/03/16 01:12:35;;;;;;;10.10;9.50;;;6.40;99.90;;;;;;5081251;28;20464;-72
2021/03/16 01:15:02;;;;;;;10.80;10.00;;;6.40;99.90;;;;;;5082289;28;20441;-72
2021/03/16 01:17:29;;;;;;;11.67;10.40;;;6.30;99.90;;;;;;5083036;28;20471;-73
2021/03/16 01:19:56;;;;;;;10.90;9.80;;;6.20;99.90;;;;;;5081206;28;20451;-73
2021/03/16 01:22:22;;;;;;;10.43;9.47;;;6.20;99.90;;;;;;5082368;28;20487;-73
2021/03/16 01:24:48;;;;;;;11.17;10.37;;;6.10;99.90;;;;;;5082423;28;20939;-72
2021/03/16 01:27:14;;;;;;;11.87;11.10;;;6.10;99.90;;;;;;5081016;28;20446;-73
2021/03/16 01:29:41;;;;;;;10.40;9.90;;;6.10;99.90;;;;;;5082186;28;20460;-72
2021/03/16 01:32:08;;;;;;;11.97;10.93;;;6.20;99.90;;;;;;5082468;28;20445;-73
2021/03/16 01:34:34;;;;;;;11.67;10.80;;;6.20;99.90;;;;;;5080697;28;20501;-73
2021/03/16 01:37:01;;;;;;;9.80;9.30;;;6.20;99.90;;;;;;5082512;28;20473;-72
2021/03/16 01:39:27;;;;;;;10.83;9.90;;;6.30;99.90;;;;;;5082366;28;20446;-73
2021/03/16 01:41:53;;;;;;;9.77;9.33;;;6.30;99.90;;;;;;5080505;28;20479;-73
2021/03/16 01:44:20;;;;;;;9.07;8.70;;;6.40;99.90;;;;;;5082153;28;20456;-73
2021/03/16 01:46:46;;;;;;;9.00;8.60;;;6.20;99.90;;;;;;5082338;28;20443;-73
2021/03/16 01:49:12;;;;;;;10.40;9.37;;;6.20;99.90;;;;;;5080368;28;20463;-74
2021/03/16 01:51:39;;;;;;;10.37;9.57;;;6.30;99.90;;;;;;5082379;28;20447;-73
2021/03/16 01:54:07;;;;;;;9.80;9.17;;;6.20;99.90;;;;;;5081877;28;20481;-73
2021/03/16 01:56:37;;;;;;;10.10;9.50;;;6.20;99.90;;;;;;5080415;28;20832;-72
2021/03/16 01:59:03;;;;;;;11.57;10.63;;;6.20;99.90;;;;;;5083142;28;20957;-72
2021/03/16 02:01:30;;;;;;;10.27;9.53;;;6.20;99.90;;;;;;5080325;28;20485;-73
2021/03/16 02:03:56;;;;;;;10.23;9.57;;;6.20;99.90;;;;;;5082386;28;20439;-74
2021/03/16 02:06:30;;;;;;;10.77;9.93;;;6.20;99.90;;;;;;5077400;28;20449;-72
2021/03/16 02:09:06;;;;;;;10.87;9.80;;;6.20;99.90;;;;;;5072389;28;20943;-73
2021/03/16 02:11:39;;;;;;;11.07;10.57;;;6.20;99.90;;;;;;5072399;28;20446;-72
2021/03/16 02:14:14;;;;;;;10.50;10.00;;;6.20;99.90;;;;;;5072078;28;20448;-72
2021/03/16 02:16:46;;;;;;;10.80;10.10;;;6.20;99.90;;;;;;5072338;28;20458;-72
2021/03/16 02:19:29;;;;;;;11.27;10.23;;;6.20;99.90;;;;;;5071213;28;20491;-72
2021/03/16 02:21:57;;;;;;;10.73;9.70;;;6.10;99.90;;;;;;5071998;28;20549;-72
2021/03/16 02:24:38;;;;;;;10.57;10.03;;;6.00;99.90;;;;;;5072005;28;20954;-72
2021/03/16 02:27:14;;;;;;;10.57;9.90;;;6.00;99.90;;;;;;5072053;28;20538;-72
2021/03/16 02:29:48;;;;;;;10.67;9.67;;;6.00;99.90;;;;;;5072122;28;20453;-72
2021/03/16 02:32:17;;;;;;;10.77;10.07;;;5.90;99.90;;;;;;5072085;28;20812;-72
2021/03/16 02:34:48;;;;;;;12.37;11.20;;;6.00;99.90;;;;;;5071769;28;20455;-72
2021/03/16 02:37:16;;;;;;;11.07;10.33;;;6.00;99.90;;;;;;5071888;28;20471;-73
2021/03/16 02:39:43;;;;;;;10.23;9.57;;;6.00;99.90;;;;;;5071884;28;20945;-73
2021/03/16 02:42:12;;;;;;;9.50;9.03;;;6.00;99.90;;;;;;5071944;28;20509;-73
2021/03/16 02:44:39;;;;;;;10.60;9.80;;;6.00;99.90;;;;;;5071744;28;20444;-72
2021/03/16 02:47:08;;;;;;;10.13;9.50;;;6.10;99.90;;;;;;5071450;28;20979;-72
2021/03/16 02:49:37;;;;;;;11.53;10.50;;;6.10;99.90;;;;;;5071639;28;21112;-72
2021/03/16 02:52:04;;;;;;;11.20;10.60;;;6.00;99.90;;;;;;5071962;28;20450;-72
2021/03/16 02:54:32;;;;;;;11.67;11.07;;;5.90;99.90;;;;;;5071802;28;20462;-72
2021/03/16 02:57:00;;;;;;;11.10;10.10;;;6.00;99.90;;;;;;5071596;28;20458;-72
2021/03/16 02:59:28;;;;;;;10.60;9.77;;;6.00;99.90;;;;;;5089292;28;20447;-72
2021/03/16 03:01:56;;;;;;;11.40;10.60;;;5.90;99.90;;;;;;5091690;28;20489;-72
2021/03/16 03:04:25;;;;;;;11.30;10.50;;;5.90;99.90;;;;;;5091507;28;20448;-73
2021/03/16 03:06:52;;;;;;;11.70;10.73;;;5.90;99.90;;;;;;5091610;28;20967;-72
2021/03/16 03:09:18;;;;;;;11.13;10.63;;;5.80;99.90;;;;;;5091487;28;20451;-73
2021/03/16 03:11:44;;;;;;;11.60;10.90;;;5.60;99.90;;;;;;5091758;28;20439;-73
2021/03/16 03:14:11;;;;;;;10.97;10.37;;;5.60;99.90;;;;;;5091486;28;20449;-73
2021/03/16 03:16:37;;;;;;;10.93;10.23;;;5.50;99.90;;;;;;5091703;28;20509;-72
2021/03/16 03:19:04;;;;;;;11.20;10.40;;;5.50;99.90;;;;;;5091369;28;20486;-73
2021/03/16 03:21:38;;;;;;;12.07;11.33;;;5.60;99.90;;;;;;5091419;28;21084;-73
2021/03/16 03:24:06;;;;;;;13.03;12.33;;;5.60;99.90;;;;;;5091697;28;20498;-74
2021/03/16 03:26:42;;;;;;;11.20;10.60;;;5.70;99.90;;;;;;5091163;28;20964;-73
2021/03/16 03:29:10;;;;;;;11.90;11.10;;;5.80;99.90;;;;;;5091259;28;20575;-73
2021/03/16 03:31:38;;;;;;;11.33;10.73;;;5.80;99.90;;;;;;5091100;28;20503;-72
2021/03/16 03:34:05;;;;;;;11.20;10.30;;;5.90;99.90;;;;;;5091269;28;20827;-72
2021/03/16 03:36:35;;;;;;;10.60;9.87;;;5.90;99.90;;;;;;5091262;28;20472;-72
2021/03/16 03:39:04;;;;;;;11.27;10.77;;;5.90;99.90;;;;;;5091715;28;20478;-73
2021/03/16 03:41:32;;;;;;;11.80;10.83;;;6.00;99.90;;;;;;5091245;28;20484;-74
2021/03/16 03:43:59;;;;;;;11.80;11.20;;;6.00;99.90;;;;;;5091422;28;20455;-74
2021/03/16 03:46:26;;;;;;;12.70;12.10;;;5.90;99.90;;;;;;5091394;28;20457;-75
2021/03/16 03:48:53;;;;;;;12.33;11.63;;;5.70;99.90;;;;;;5091202;28;20453;-75
2021/03/16 03:51:21;;;;;;;12.57;11.57;;;5.60;99.90;;;;;;5091092;28;20529;-75
2021/03/16 03:53:49;;;;;;;13.37;12.53;;;5.60;99.90;;;;;;5091320;28;20467;-75
2021/03/16 03:56:16;;;;;;;12.97;12.07;;;5.50;99.90;;;;;;5091162;28;20862;-74
2021/03/16 03:58:43;;;;;;;13.93;12.60;;;5.50;99.90;;;;;;5091286;28;20457;-74
2021/03/16 04:01:10;;;;;;;12.57;11.57;;;5.40;99.90;;;;;;5090956;28;20484;-74
2021/03/16 04:03:37;;;;;;;13.33;12.63;;;5.40;99.90;;;;;;5090962;28;20475;-73
2021/03/16 04:06:04;;;;;;;11.97;11.30;;;5.50;99.90;;;;;;5091153;28;20456;-73
2021/03/16 04:08:30;;;;;;;11.77;11.07;;;5.50;99.90;;;;;;5091030;28;20458;-74
2021/03/16 04:10:59;;;;;;;12.33;11.63;;;5.40;99.90;;;;;;5091005;28;20444;-73
2021/03/16 04:13:25;;;;;;;11.33;10.53;;;5.50;99.90;;;;;;5090863;28;20453;-74
2021/03/16 04:15:52;;;;;;;11.87;10.90;;;5.50;99.90;;;;;;5091045;28;20445;-73
2021/03/16 04:18:19;;;;;;;12.20;11.20;;;5.50;99.90;;;;;;5090606;28;21065;-74
2021/03/16 04:20:45;;;;;;;16.13;11.30;;;5.50;99.90;;;;;;5090985;28;20830;-75
2021/03/16 04:23:12;;;;;;;10.83;9.93;;;5.50;99.90;;;;;;5091010;28;20793;-74
2021/03/16 04:25:38;;;;;;;12.40;10.27;;;5.50;99.90;;;;;;5090785;28;21022;-73
2021/03/16 04:28:06;;;;;;;12.97;12.13;;;5.60;99.90;;;;;;5090724;28;20449;-70
2021/03/16 04:30:32;;;;;;;19.30;18.13;;;5.30;99.90;;;;;;5090870;28;20480;-72
2021/03/16 04:32:58;;;;;;;22.17;20.50;;;5.00;99.90;;;;;;5090977;28;20449;-70
2021/03/16 04:35:25;;;;;;;20.20;19.10;;;4.90;99.90;;;;;;5090723;28;20802;-69
2021/03/16 04:37:51;;;;;;;20.80;19.90;;;4.80;99.90;;;;;;5090534;28;20470;-70
2021/03/16 04:40:17;;;;;;;19.80;18.70;;;4.80;99.90;;;;;;5090795;28;20459;-70
2021/03/16 04:42:43;;;;;;;23.30;22.13;;;4.70;99.90;;;;;;5092411;28;20443;-69
2021/03/16 04:45:12;;;;;;;22.80;21.40;;;4.70;99.90;;;;;;5094274;28;20975;-69
2021/03/16 04:47:38;;;;;;;22.90;21.37;;;4.80;99.90;;;;;;5094072;28;20946;-69
2021/03/16 04:50:05;;;;;;;20.93;19.63;;;4.70;99.90;;;;;;5094306;28;20454;-70
2021/03/16 04:52:31;;;;;;;21.07;19.87;;;4.70;99.90;;;;;;5087630;28;20443;-71
2021/03/16 04:54:58;;;;;;;21.90;20.50;;;4.80;99.90;;;;;;5082425;28;20819;-72
2021/03/16 04:57:24;;;;;;;20.40;19.33;;;4.80;99.90;;;;;;5083588;28;20439;-72
2021/03/16 04:59:50;;;;;;;19.53;18.77;;;4.80;99.90;;;;;;5080941;28;20451;-71
2021/03/16 05:02:17;;;;;;;19.50;18.40;;;4.80;99.90;;;;;;5073566;28;20996;-72
2021/03/16 05:04:43;;;;;;;18.07;17.17;;;4.80;99.90;;;;;;5073773;28;20453;-72
2021/03/16 05:07:09;;;;;;;18.83;17.70;;;4.80;99.90;;;;;;5073287;28;20977;-72
2021/03/16 05:09:36;;;;;;;18.67;17.27;;;4.70;99.90;;;;;;5073345;28;20444;-72
2021/03/16 05:12:02;;;;;;;17.17;16.10;;;4.80;99.90;;;;;;5073456;28;20522;-72
2021/03/16 05:14:28;;;;;;;17.67;16.37;;;4.80;99.90;;;;;;5073544;28;20456;-70
2021/03/16 05:16:54;;;;;;;16.60;15.60;;;4.80;99.90;;;;;;5075179;28;20503;-69
2021/03/16 05:19:21;;;;;;;16.63;15.53;;;4.80;99.90;;;;;;5093375;28;20950;-69
2021/03/16 05:21:47;;;;;;;20.73;17.60;;;4.90;99.90;;;;;;5093339;28;20483;-69
2021/03/16 05:24:14;;;;;;;16.40;15.40;;;4.90;99.90;;;;;;5093390;28;20455;-70
2021/03/16 05:26:40;;;;;;;16.90;16.00;;;4.90;99.90;;;;;;5093345;28;20461;-70
2021/03/16 05:29:06;;;;;;;17.33;15.97;;;4.90;99.90;;;;;;5093300;28;20457;-71
2021/03/16 05:31:32;;;;;;;15.30;14.57;;;5.00;99.90;;;;;;5093369;28;20451;-71
2021/03/16 05:33:59;;;;;;;14.73;13.83;;;5.00;99.90;;;;;;5093075;28;20442;-70
2021/03/16 05:36:26;;;;;;;16.07;15.20;;;5.00;99.90;;;;;;5092901;28;20475;-71
2021/03/16 05:38:52;;;;;;;16.73;15.43;;;5.10;99.90;;;;;;5092804;28;20451;-72
2021/03/16 05:41:19;;;;;;;17.40;16.07;;;5.10;99.90;;;;;;5093161;28;20481;-71
2021/03/16 05:43:47;;;;;;;14.87;13.93;;;5.10;99.90;;;;;;5093220;28;20446;-71
2021/03/16 05:46:14;;;;;;;15.73;14.73;;;5.10;99.90;;;;;;5093032;28;20486;-72
2021/03/16 05:48:41;;;;;;;15.30;14.33;;;5.10;99.90;;;;;;5092830;28;20549;-73
2021/03/16 05:51:08;;;;;;;16.37;15.13;;;5.10;99.90;;;;;;5093159;28;20801;-72
2021/03/16 05:53:35;;;;;;;13.63;12.87;;;5.10;99.90;;;;;;5092934;28;20445;-71
2021/03/16 05:56:01;;;;;;;17.67;16.03;;;5.20;99.90;;;;;;5092849;28;20473;-72
2021/03/16 05:58:29;;;;;;;16.20;15.00;;;5.20;99.90;;;;;;5092917;28;20457;-72
2021/03/16 06:00:55;;;;;;;15.30;14.20;;;5.20;99.90;;;;;;5092768;28;20480;-71
2021/03/16 06:03:21;;;;;;;15.90;15.00;;;5.30;99.90;;;;;;5092990;28;21111;-72
2021/03/16 06:05:49;;;;;;;14.03;13.17;;;5.30;99.90;;;;;;5092811;28;20453;-72
2021/03/16 06:08:15;;;;;;;14.23;13.40;;;5.30;99.90;;;;;;5092730;28;20539;-72
2021/03/16 06:10:44;;;;;;;13.20;12.30;;;5.40;99.90;;;;;;5092722;28;20516;-73
2021/03/16 06:13:12;;;;;;;12.87;12.00;;;5.40;99.90;;;;;;5092479;28;20799;-73
2021/03/16 06:15:38;;;;;;;13.53;12.33;;;5.50;99.90;;;;;;5092482;28;20454;-72
2021/03/16 06:18:04;;;;;;;12.97;12.17;;;5.50;99.90;;;;;;5092381;28;20471;-71
2021/03/16 06:20:32;;;;;;;13.80;13.00;;;5.60;99.90;;;;;;5092663;28;20506;-72
2021/03/16 06:23:07;;;;;;;13.63;12.60;;;5.60;99.90;;;;;;5092625;28;20817;-73
2021/03/16 06:25:35;;;;;;;11.27;10.67;;;5.60;99.90;;;;;;5092187;28;20941;-73
2021/03/16 06:28:04;;;;;;;14.33;13.03;;;5.70;99.90;;;;;;5092178;28;20468;-70
2021/03/16 06:30:31;;;;;;;13.40;12.73;;;5.60;99.90;;;;;;5092078;28;20447;-70
2021/03/16 06:32:57;;;;;;;14.70;13.60;;;5.80;99.90;;;;;;5092212;28;20479;-70
2021/03/16 06:35:24;;;;;;;14.83;13.70;;;5.80;99.90;;;;;;5091929;28;20946;-69
2021/03/16 06:38:19;;;;;;;11.97;11.27;;;5.80;99.90;;;;;;5091901;28;20984;-71
2021/03/16 06:40:46;;;;;;;14.43;13.30;;;5.70;99.90;;;;;;5078534;28;20485;-72
2021/03/16 06:43:13;;;;;;;12.20;11.00;;;5.70;99.90;;;;;;5092372;28;20461;-71
2021/03/16 06:45:40;;;;;;;12.60;11.60;;;5.70;99.90;;;;;;5092101;28;20447;-70
2021/03/16 06:48:14;;;;;;;11.27;10.60;;;5.80;99.90;;;;;;5091974;28;20449;-70
2021/03/16 06:50:41;;;;;;;12.00;11.10;;;5.90;99.90;;;;;;5091960;28;20441;-71
2021/03/16 06:53:13;;;;;;;13.33;12.27;;;5.90;99.90;;;;;;5091845;28;20820;-72
2021/03/16 06:55:49;;;;;;;12.47;11.63;;;5.90;99.90;;;;;;5091442;28;21032;-71
2021/03/16 06:58:16;;;;;;;13.03;11.97;;;5.90;99.90;;;;;;5091801;28;20455;-71
2021/03/16 07:00:43;;;;;;;13.90;12.53;;;5.90;99.90;;;;;;5092009;28;20489;-71
2021/03/16 07:03:13;;;;;;;12.53;11.73;;;5.90;99.90;;;;;;5091609;28;20458;-72
2021/03/16 07:05:39;;;;;;;13.63;12.63;;;5.90;99.90;;;;;;5091168;28;20461;-71
2021/03/16 07:08:06;;;;;;;12.90;11.97;;;5.90;99.90;;;;;;5091654;28;20474;-71
2021/03/16 07:10:34;;;;;;;13.93;13.03;;;5.90;99.90;;;;;;5091694;28;20515;-71
2021/03/16 07:13:01;;;;;;;14.20;13.50;;;5.90;99.90;;;;;;5091599;28;20458;-72
2021/03/16 07:15:29;;;;;;;16.10;14.70;;;5.80;99.90;;;;;;5091774;28;20464;-72
2021/03/16 07:17:57;;;;;;;16.83;15.43;;;5.70;99.90;;;;;;5091324;28;21009;-69
2021/03/16 07:20:27;;;;;;;18.50;17.00;;;5.60;99.90;;;;;;5091517;28;20460;-71
2021/03/16 07:22:57;;;;;;;20.90;19.60;;;5.60;99.90;;;;;;5091451;28;20472;-71
2021/03/16 07:25:24;;;;;;;22.63;21.33;;;5.50;99.90;;;;;;5091119;28;20444;-70
2021/03/16 07:27:51;;;;;;;23.90;22.20;;;5.50;99.90;;;;;;5091207;28;20507;-71
2021/03/16 07:30:18;;;;;;;24.80;22.90;;;5.50;99.90;;;;;;5091222;28;20530;-71
2021/03/16 07:32:46;;;;;;;27.97;26.47;;;5.50;99.90;;;;;;5091119;28;20444;-70
2021/03/16 07:35:13;;;;;;;26.90;25.00;;;5.40;99.90;;;;;;5091555;28;20460;-72
2021/03/16 07:37:40;;;;;;;27.93;26.13;;;5.30;99.90;;;;;;5091249;28;20471;-72
2021/03/16 07:40:08;;;;;;;27.70;26.00;;;5.10;99.90;;;;;;5090822;28;20451;-72
2021/03/16 07:42:36;;;;;;;29.07;27.30;;;5.00;99.90;;;;;;5088865;28;20493;-72
2021/03/16 07:45:03;;;;;;;31.47;29.30;;;4.90;99.90;;;;;;5089503;28;20462;-72
2021/03/16 07:47:33;;;;;;;28.70;27.20;;;4.90;99.90;;;;;;5091377;28;20454;-72
2021/03/16 07:50:02;;;;;;;31.00;28.60;;;5.00;99.90;;;;;;5091348;28;20451;-73
2021/03/16 07:52:29;;;;;;;30.43;28.17;;;5.10;99.90;;;;;;5091328;28;20448;-72
2021/03/16 07:54:55;;;;;;;30.27;28.07;;;5.20;99.90;;;;;;5091299;28;20446;-73
2021/03/16 07:57:29;;;;;;;29.57;27.23;;;5.40;99.90;;;;;;5091158;28;20444;-72
2021/03/16 07:59:59;;;;;;;25.20;23.70;;;5.60;99.90;;;;;;5091277;28;20456;-73
2021/03/16 08:02:29;;;;;;;25.20;23.20;;;6.00;99.90;;;;;;5091169;28;20515;-72
2021/03/16 08:04:56;;;;;;;20.77;19.47;;;6.20;99.90;;;;;;5091145;28;20474;-72
2021/03/16 08:07:27;;;;;;;22.17;20.37;;;6.30;99.90;;;;;;5091156;28;20446;-72
2021/03/16 08:09:57;;;;;;;19.63;18.17;;;6.50;99.90;;;;;;5091086;28;20449;-72
2021/03/16 08:12:25;;;;;;;19.53;17.93;;;6.90;99.90;;;;;;5090991;28;20493;-72
2021/03/16 08:14:52;;;;;;;20.37;18.97;;;7.10;99.90;;;;;;5091103;28;20446;-72
2021/03/16 08:17:28;;;;;;;18.13;16.80;;;7.10;99.90;;;;;;5091853;28;20484;-72
2021/03/16 08:19:54;;;;;;;18.77;17.47;;;7.10;99.90;;;;;;5094935;28;20453;-72
2021/03/16 08:22:21;;;;;;;16.67;15.40;;;7.10;99.90;;;;;;5094868;28;20489;-72
2021/03/16 08:24:51;;;;;;;16.57;15.27;;;7.00;99.90;;;;;;5094742;28;20454;-72
2021/03/16 08:27:17;;;;;;;18.47;16.20;;;6.90;99.90;;;;;;5094762;28;20458;-71
2021/03/16 08:29:45;;;;;;;18.17;16.80;;;6.90;99.90;;;;;;5094918;28;20506;-72
2021/03/16 08:32:15;;;;;;;17.17;15.73;;;6.80;99.90;;;;;;5094513;28;20485;-72
2021/03/16 08:34:42;;;;;;;16.50;15.27;;;6.60;99.90;;;;;;5094704;28;20457;-72
2021/03/16 08:37:20;;;;;;;16.27;15.20;;;6.70;99.90;;;;;;5094418;28;20540;-72
2021/03/16 08:39:46;;;;;;;16.40;15.47;;;6.90;99.90;;;;;;5094452;28;20453;-73
2021/03/16 08:42:17;;;;;;;16.57;15.37;;;6.80;99.90;;;;;;5094409;28;20547;-72
2021/03/16 08:44:43;;;;;;;16.97;15.57;;;6.80;99.90;;;;;;5094437;28;20761;-72
2021/03/16 08:47:11;;;;;;;15.57;14.60;;;6.80;99.90;;;;;;5094021;28;20460;-72
2021/03/16 08:49:39;;;;;;;15.97;14.70;;;6.70;99.90;;;;;;5094163;28;20446;-72
2021/03/16 08:52:14;;;;;;;16.53;15.13;;;6.90;99.90;;;;;;5092515;28;21709;-73
2021/03/16 08:54:40;;;;;;;15.83;13.53;;;7.20;99.90;;;;;;5093520;28;20454;-72
2021/03/16 08:57:07;;;;;;;14.90;13.53;;;7.20;99.90;;;;;;5093403;28;20488;-71
2021/03/16 08:59:34;;;;;;;15.00;13.67;;;7.30;99.90;;;;;;5093930;28;20446;-71
2021/03/16 09:02:01;;;;;;;15.30;14.17;;;7.50;99.90;;;;;;5093803;28;21031;-71
2021/03/16 09:04:27;;;;;;;14.57;13.17;;;7.40;99.90;;;;;;5093996;28;20446;-70
2021/03/16 09:06:54;;;;;;;14.57;13.60;;;7.50;99.90;;;;;;5093788;28;20494;-70
2021/03/16 09:09:25;;;;;;;13.73;12.67;;;7.80;99.90;;;;;;5093629;28;21219;-72
2021/03/16 09:11:51;;;;;;;14.00;12.87;;;7.90;99.90;;;;;;5093626;28;20465;-72
2021/03/16 09:14:19;;;;;;;13.73;12.77;;;7.70;99.90;;;;;;5093455;28;20492;-72
2021/03/16 09:16:48;;;;;;;14.33;13.23;;;7.80;99.90;;;;;;5093656;28;20553;-72
2021/03/16 09:19:17;;;;;;;14.93;13.63;;;8.00;99.90;;;;;;5093556;28;20482;-73
2021/03/16 09:21:51;;;;;;;12.57;11.87;;;7.80;99.90;;;;;;5093219;28;20489;-72
2021/03/16 09:24:22;;;;;;;12.70;12.00;;;7.70;99.90;;;;;;5093878;28;20453;-73
2021/03/16 09:26:57;;;;;;;14.60;12.60;;;7.50;99.90;;;;;;5093870;28;20458;-73
2021/03/16 09:29:25;;;;;;;13.47;12.57;;;7.50;99.90;;;;;;5093393;28;20973;-73
2021/03/16 09:31:53;;;;;;;12.60;11.80;;;7.50;99.90;;;;;;5093655;28;20450;-72
2021/03/16 09:34:19;;;;;;;12.23;11.23;;;7.50;99.90;;;;;;5093744;28;20446;-72
2021/03/16 09:36:56;;;;;;;13.70;12.37;;;7.50;99.90;;;;;;5093486;28;20470;-72
2021/03/16 09:39:23;;;;;;;13.83;12.83;;;7.60;99.90;;;;;;5093497;28;20442;-74
2021/03/16 09:41:53;;;;;;;12.50;11.63;;;7.60;99.90;;;;;;5093300;28;20489;-73
2021/03/16 09:44:30;;;;;;;13.33;12.43;;;7.50;99.90;;;;;;5093431;28;21011;-71
2021/03/16 09:46:57;;;;;;;13.17;12.07;;;7.70;99.90;;;;;;5093310;28;20450;-73
2021/03/16 09:49:28;;;;;;;14.33;12.50;;;7.70;99.90;;;;;;5093263;28;20468;-73
2021/03/16 09:51:55;;;;;;;11.67;10.73;;;7.80;99.90;;;;;;5093285;28;20450;-71
2021/03/16 09:54:21;;;;;;;11.90;11.20;;;7.70;99.90;;;;;;5093090;28;20454;-72
2021/03/16 09:56:51;;;;;;;13.67;12.80;;;7.50;99.90;;;;;;5093051;28;20948;-73
2021/03/16 09:59:18;;;;;;;11.03;10.33;;;7.40;99.90;;;;;;5093264;28;20467;-72
2021/03/16 10:01:45;;;;;;;12.30;11.30;;;7.20;99.90;;;;;;5093038;28;20482;-72
2021/03/16 10:04:13;;;;;;;12.43;11.50;;;7.00;99.90;;;;;;5092923;28;20457;-72
2021/03/16 10:06:42;;;;;;;13.50;12.70;;;7.20;99.90;;;;;;5092700;28;20450;-74
2021/03/16 10:09:15;;;;;;;16.00;13.53;;;7.30;99.90;;;;;;5092669;28;20554;-74
2021/03/16 10:11:41;;;;;;;13.23;12.30;;;7.20;99.90;;;;;;5092976;28;20446;-72
2021/03/16 10:14:08;;;;;;;11.80;10.90;;;7.30;99.90;;;;;;5092412;28;20443;-72
2021/03/16 10:16:35;;;;;;;13.43;12.43;;;7.50;99.90;;;;;;5092643;28;20450;-71
2021/03/16 10:19:01;;;;;;;14.20;13.30;;;7.90;99.90;;;;;;5092536;28;20486;-73
2021/03/16 10:21:30;;;;;;;12.97;12.07;;;8.10;99.90;;;;;;5092555;28;20478;-71
2021/03/16 10:24:01;;;;;;;15.23;11.97;;;8.10;99.90;;;;;;5092579;28;20450;-71
2021/03/16 10:26:27;;;;;;;13.03;12.23;;;8.20;99.90;;;;;;5092271;28;20983;-72
2021/03/16 10:28:53;;;;;;;14.73;13.60;;;8.20;99.90;;;;;;5092544;28;20458;-71
2021/03/16 10:31:21;;;;;;;15.57;14.33;;;8.20;99.90;;;;;;5092648;28;20783;-72
2021/03/16 10:33:49;;;;;;;14.63;13.23;;;8.40;99.90;;;;;;5092307;28;20485;-72
2021/03/16 10:36:16;;;;;;;14.60;13.23;;;8.90;99.90;;;;;;5092254;28;20468;-71
2021/03/16 10:38:48;;;;;;;13.17;12.03;;;9.30;99.90;;;;;;5092297;28;20470;-72
2021/03/16 10:41:14;;;;;;;13.80;12.83;;;9.40;99.90;;;;;;5091548;28;20884;-72
2021/03/16 10:43:40;;;;;;;12.47;11.87;;;9.60;99.90;;;;;;5092240;28;20442;-71
2021/03/16 10:46:06;;;;;;;13.00;12.00;;;9.70;99.90;;;;;;5092275;28;20533;-72
2021/03/16 10:48:32;;;;;;;14.03;12.30;;;9.70;99.90;;;;;;5092241;28;20519;-73
2021/03/16 10:50:59;;;;;;;12.83;11.80;;;9.80;99.90;;;;;;5092181;28;20932;-72
2021/03/16 10:53:25;;;;;;;12.40;11.50;;;9.70;99.90;;;;;;5092104;28;20442;-73
2021/03/16 10:55:52;;;;;;;12.70;11.70;;;10.00;99.90;;;;;;5092071;28;20460;-72
2021/03/16 10:58:18;;;;;;;13.13;11.93;;;10.00;99.90;;;;;;5091925;28;20937;-72
2021/03/16 11:00:44;;;;;;;13.10;12.00;;;10.30;99.90;;;;;;5092040;28;20582;-72
2021/03/16 11:03:11;;;;;;;11.83;11.13;;;10.30;99.90;;;;;;5091924;28;20431;-72
2021/03/16 11:05:37;;;;;;;14.00;12.50;;;10.40;99.90;;;;;;5091694;28;20487;-72
2021/03/16 11:08:04;;;;;;;13.50;12.53;;;10.20;99.90;;;;;;5091733;28;20450;-72
2021/03/16 11:10:30;;;;;;;17.07;13.83;;;9.70;99.90;;;;;;5091775;28;20456;-72
2021/03/16 11:12:57;;;;;;;13.37;12.20;;;9.50;99.90;;;;;;5091849;28;20441;-72
2021/03/16 11:15:23;;;;;;;13.73;12.70;;;9.50;99.90;;;;;;5091605;28;20439;-72
2021/03/16 11:17:50;;;;;;;13.80;12.50;;;9.40;99.90;;;;;;5091179;28;20481;-73
2021/03/16 11:20:17;;;;;;;13.80;12.73;;;9.20;99.90;;;;;;5091452;28;20817;-72
2021/03/16 11:22:43;;;;;;;13.60;12.53;;;8.90;99.90;;;;;;5091433;28;20909;-73
2021/03/16 11:25:10;;;;;;;13.00;11.77;;;8.70;99.90;;;;;;5091271;28;20477;-73
2021/03/16 11:27:38;;;;;;;13.03;11.87;;;8.90;99.90;;;;;;5091467;28;20442;-71
2021/03/16 11:30:07;;;;;;;14.87;13.60;;;8.80;99.90;;;;;;5091525;28;20443;-71
2021/03/16 11:32:33;;;;;;;13.93;12.90;;;8.90;99.90;;;;;;5091629;28;20552;-72
2021/03/16 11:35:00;;;;;;;12.00;11.10;;;8.80;99.90;;;;;;5091720;28;20818;-72
2021/03/16 11:37:26;;;;;;;13.23;12.17;;;8.70;99.90;;;;;;5091405;28;20492;-73
2021/03/16 11:39:53;;;;;;;14.70;13.30;;;8.80;99.90;;;;;;5091374;28;20468;-72
2021/03/16 11:42:19;;;;;;;12.83;11.80;;;8.70;99.90;;;;;;5091476;28;20787;-73
2021/03/16 11:44:45;;;;;;;13.90;12.70;;;8.80;99.90;;;;;;5091625;28;20823;-72
2021/03/16 11:47:14;;;;;;;13.27;12.07;;;8.90;99.90;;;;;;5091596;28;20945;-73
2021/03/16 11:49:40;;;;;;;11.80;11.10;;;8.90;99.90;;;;;;5091551;28;20449;-72
2021/03/16 11:52:06;;;;;;;13.43;11.63;;;8.60;99.90;;;;;;5093891;28;20450;-72
2021/03/16 11:54:32;;;;;;;12.03;11.30;;;8.50;99.90;;;;;;5095405;28;20940;-72
2021/03/16 11:56:59;;;;;;;13.03;12.23;;;8.30;99.90;;;;;;5095461;28;20449;-74
2021/03/16 11:59:26;;;;;;;12.03;11.13;;;8.00;99.90;;;;;;5095489;28;20442;-71
2021/03/16 12:01:52;;;;;;;14.90;13.70;;;7.60;99.90;;;;;;5095355;28;20527;-71
2021/03/16 12:04:19;;;;;;;14.93;13.90;;;7.20;99.90;;;;;;5095391;28;20460;-70
2021/03/16 12:06:46;;;;;;;15.43;14.50;;;7.10;99.90;;;;;;5095359;28;20442;-70
2021/03/16 12:09:12;;;;;;;15.03;14.00;;;7.10;99.90;;;;;;5095349;28;20504;-70
2021/03/16 12:11:39;;;;;;;14.13;12.90;;;7.30;99.90;;;;;;5095328;28;20442;-72
2021/03/16 12:14:05;;;;;;;13.83;12.87;;;7.40;99.90;;;;;;5095233;28;20557;-71
2021/03/16 12:16:31;;;;;;;14.13;13.30;;;7.40;99.90;;;;;;5095111;28;20450;-71
2021/03/16 12:18:58;;;;;;;14.50;13.33;;;7.40;99.90;;;;;;5094921;28;20482;-72
2021/03/16 12:21:25;;;;;;;14.67;13.27;;;7.60;99.90;;;;;;5094745;28;20482;-72
2021/03/16 12:23:51;;;;;;;12.50;11.70;;;7.80;99.90;;;;;;5095036;28;20454;-72
2021/03/16 12:26:17;;;;;;;13.87;13.03;;;8.10;99.90;;;;;;5094968;28;20446;-71
2021/03/16 12:28:44;;;;;;;13.33;12.10;;;8.30;99.90;;;;;;5094936;28;20445;-71
2021/03/16 12:31:10;;;;;;;12.73;11.43;;;8.60;99.90;;;;;;5094858;28;20461;-70
2021/03/16 12:33:36;;;;;;;11.60;11.00;;;8.80;99.90;;;;;;5094877;28;20445;-70
2021/03/16 12:36:03;;;;;;;11.70;10.90;;;9.10;99.90;;;;;;5094592;28;21143;-70
2021/03/16 12:38:30;;;;;;;12.30;11.60;;;9.30;99.90;;;;;;5094833;28;20541;-71
2021/03/16 12:40:56;;;;;;;12.17;11.27;;;9.50;99.90;;;;;;5094758;28;20796;-70